sensor_id;sensor_type;location;lat;lon;timestamp;pressure;altitude;pressure_sealevel;temperature;humidity
31585;BME280;18191;51.288;12.390;2023-02-26T00:04:36;49152.06;;;-144.47;83.09
31585;BME280;18191;51.288;12.390;2023-02-26T00:09:26;49160.03;;;-144.47;83.84
31585;BME280;18191;51.288;12.390;2023-02-26T00:14:16;49156.03;;;-144.47;84.33
31585;BME280;18191;51.288;12.390;2023-02-26T00:19:07;49164.00;;;-144.47;84.09
31585;BME280;18191;51.288;12.390;2023-02-26T00:23:59;49179.91;;;-144.47;84.90
31585;BME280;18191;51.288;12.390;2023-02-26T00:28:51;49120.25;;;-144.47;83.95
31585;BME280;18191;51.288;12.390;2023-02-26T00:33:42;49167.97;;;-144.47;84.02
31585;BME280;18191;51.288;12.390;2023-02-26T00:38:33;49156.03;;;-144.47;84.48
31585;BME280;18191;51.288;12.390;2023-02-26T00:43:24;49181.91;;;-144.47;84.60
31585;BME280;18191;51.288;12.390;2023-02-26T00:48:19;49187.88;;;-144.47;84.16
31585;BME280;18191;51.288;12.390;2023-02-26T00:53:13;49122.22;;;-144.47;84.23
31585;BME280;18191;51.288;12.390;2023-02-26T00:58:06;49152.06;;;-144.47;84.63
31585;BME280;18191;51.288;12.390;2023-02-26T01:02:57;49128.19;;;-144.47;84.69
31585;BME280;18191;51.288;12.390;2023-02-26T01:12:43;49195.84;;;-144.47;85.55
31585;BME280;18191;51.288;12.390;2023-02-26T01:17:43;49187.88;;;-144.47;85.10
31585;BME280;18191;51.288;12.390;2023-02-26T01:22:43;49171.97;;;-144.47;84.42
31585;BME280;18191;51.288;12.390;2023-02-26T01:27:35;49167.97;;;-144.47;84.81
31585;BME280;18191;51.288;12.390;2023-02-26T01:32:30;49128.19;;;-144.47;84.48
31585;BME280;18191;51.288;12.390;2023-02-26T01:37:48;49164.00;;;-144.47;85.75
31585;BME280;18191;51.288;12.390;2023-02-26T01:42:39;49171.97;;;-144.47;85.91
31585;BME280;18191;51.288;12.390;2023-02-26T01:47:53;49175.94;;;-144.47;86.63
31585;BME280;18191;51.288;12.390;2023-02-26T01:57:39;49199.81;;;-144.47;86.07
31585;BME280;18191;51.288;12.390;2023-02-26T02:02:29;49175.94;;;-144.47;86.15
31585;BME280;18191;51.288;12.390;2023-02-26T02:07:19;49191.84;;;-144.47;87.19
31585;BME280;18191;51.288;12.390;2023-02-26T02:17:24;49160.03;;;-144.47;87.53
31585;BME280;18191;51.288;12.390;2023-02-26T02:27:18;49183.91;;;-144.47;88.56
31585;BME280;18191;51.288;12.390;2023-02-26T02:32:21;49156.03;;;-144.47;88.87
31585;BME280;18191;51.288;12.390;2023-02-26T02:47:26;49191.84;;;-144.47;87.53
31585;BME280;18191;51.288;12.390;2023-02-26T02:52:20;49156.03;;;-144.47;88.07
31585;BME280;18191;51.288;12.390;2023-02-26T02:57:17;49152.06;;;-144.47;88.35
31585;BME280;18191;51.288;12.390;2023-02-26T03:02:10;49152.06;;;-144.47;89.27
31585;BME280;18191;51.288;12.390;2023-02-26T03:07:01;49152.06;;;-144.47;89.22
31585;BME280;18191;51.288;12.390;2023-02-26T03:11:51;49164.00;;;-144.47;88.96
31585;BME280;18191;51.288;12.390;2023-02-26T03:26:37;49160.03;;;-144.47;87.31
31585;BME280;18191;51.288;12.390;2023-02-26T03:31:49;49154.06;;;-144.47;87.63
31585;BME280;18191;51.288;12.390;2023-02-26T03:36:49;49162.00;;;-144.47;87.63
31585;BME280;18191;51.288;12.390;2023-02-26T03:46:42;49191.84;;;-144.47;88.20
31585;BME280;18191;51.288;12.390;2023-02-26T03:51:33;49191.84;;;-144.47;87.82
31585;BME280;18191;51.288;12.390;2023-02-26T03:56:27;49167.97;;;-144.47;88.11
31585;BME280;18191;51.288;12.390;2023-02-26T04:01:19;49171.97;;;-144.47;88.33
31585;BME280;18191;51.288;12.390;2023-02-26T04:06:11;49144.09;;;-144.47;88.45
31585;BME280;18191;51.288;12.390;2023-02-26T04:11:04;49187.88;;;-144.47;87.88
31585;BME280;18191;51.288;12.390;2023-02-26T04:15:55;49207.78;;;-144.47;87.77
31585;BME280;18191;51.288;12.390;2023-02-26T04:20:45;49215.72;;;-144.47;88.14
31585;BME280;18191;51.288;12.390;2023-02-26T04:25:35;49140.13;;;-144.47;88.03
31585;BME280;18191;51.288;12.390;2023-02-26T04:30:25;49156.03;;;-144.47;87.19
31585;BME280;18191;51.288;12.390;2023-02-26T04:35:16;49152.06;;;-144.47;86.27
31585;BME280;18191;51.288;12.390;2023-02-26T04:40:06;49187.88;;;-144.47;85.20
31585;BME280;18191;51.288;12.390;2023-02-26T04:44:56;49195.84;;;-144.47;85.32
31585;BME280;18191;51.288;12.390;2023-02-26T04:49:46;49203.78;;;-144.47;86.75
31585;BME280;18191;51.288;12.390;2023-02-26T04:54:37;49148.09;;;-144.47;86.01
31585;BME280;18191;51.288;12.390;2023-02-26T04:59:27;49144.09;;;-144.47;86.42
31585;BME280;18191;51.288;12.390;2023-02-26T05:04:17;49175.94;;;-144.47;86.26
31585;BME280;18191;51.288;12.390;2023-02-26T05:09:07;49162.00;;;-144.47;86.38
31585;BME280;18191;51.288;12.390;2023-02-26T05:13:57;49148.09;;;-144.47;86.37
31585;BME280;18191;51.288;12.390;2023-02-26T05:18:48;49183.91;;;-144.47;86.46
31585;BME280;18191;51.288;12.390;2023-02-26T05:23:38;49175.94;;;-144.47;86.07
31585;BME280;18191;51.288;12.390;2023-02-26T05:28:28;49185.88;;;-144.47;86.50
31585;BME280;18191;51.288;12.390;2023-02-26T05:33:18;49124.22;;;-144.47;86.12
31585;BME280;18191;51.288;12.390;2023-02-26T05:38:08;49203.78;;;-144.47;85.37
31585;BME280;18191;51.288;12.390;2023-02-26T05:42:58;49185.88;;;-144.47;85.95
31585;BME280;18191;51.288;12.390;2023-02-26T05:47:49;49162.00;;;-144.47;86.90
31585;BME280;18191;51.288;12.390;2023-02-26T05:52:39;49173.94;;;-144.47;86.28
31585;BME280;18191;51.288;12.390;2023-02-26T05:57:29;49150.06;;;-144.47;85.23
31585;BME280;18191;51.288;12.390;2023-02-26T06:02:19;49191.84;;;-144.47;86.78
31585;BME280;18191;51.288;12.390;2023-02-26T06:07:09;49199.81;;;-144.47;86.91
31585;BME280;18191;51.288;12.390;2023-02-26T06:12:00;49191.84;;;-144.47;85.66
31585;BME280;18191;51.288;12.390;2023-02-26T06:16:50;49175.94;;;-144.47;85.41
31585;BME280;18191;51.288;12.390;2023-02-26T06:21:40;49203.78;;;-144.47;85.42
31585;BME280;18191;51.288;12.390;2023-02-26T06:26:30;49140.13;;;-144.47;84.13
31585;BME280;18191;51.288;12.390;2023-02-26T06:31:20;49189.88;;;-144.47;83.49
31585;BME280;18191;51.288;12.390;2023-02-26T06:36:10;49203.78;;;-144.47;83.29
31585;BME280;18191;51.288;12.390;2023-02-26T06:41:01;49211.75;;;-144.47;82.70
31585;BME280;18191;51.288;12.390;2023-02-26T06:45:51;49164.00;;;-144.47;82.59
31585;BME280;18191;51.288;12.390;2023-02-26T06:50:41;49164.00;;;-144.47;81.82
31585;BME280;18191;51.288;12.390;2023-02-26T06:55:32;49152.06;;;-144.47;83.32
31585;BME280;18191;51.288;12.390;2023-02-26T07:00:22;49164.00;;;-144.47;82.29
31585;BME280;18191;51.288;12.390;2023-02-26T07:05:13;49148.09;;;-144.47;80.17
31585;BME280;18191;51.288;12.390;2023-02-26T07:10:04;49124.22;;;-144.47;80.54
31585;BME280;18191;51.288;12.390;2023-02-26T07:14:54;49144.09;;;-144.47;80.45
31585;BME280;18191;51.288;12.390;2023-02-26T07:19:45;49175.94;;;-144.47;80.69
31585;BME280;18191;51.288;12.390;2023-02-26T07:24:35;49150.06;;;-144.47;79.93
31585;BME280;18191;51.288;12.390;2023-02-26T07:29:25;49148.09;;;-144.47;79.62
31585;BME280;18191;51.288;12.390;2023-02-26T07:34:15;49152.06;;;-144.47;79.42
31585;BME280;18191;51.288;12.390;2023-02-26T07:39:06;49167.97;;;-144.47;77.85
31585;BME280;18191;51.288;12.390;2023-02-26T07:43:56;49138.16;;;-144.47;77.80
31585;BME280;18191;51.288;12.390;2023-02-26T07:48:46;49164.00;;;-144.47;77.24
31585;BME280;18191;51.288;12.390;2023-02-26T07:53:36;49156.03;;;-144.47;76.07
31585;BME280;18191;51.288;12.390;2023-02-26T07:58:26;49191.84;;;-144.47;76.17
31585;BME280;18191;51.288;12.390;2023-02-26T08:03:17;49162.00;;;-144.47;76.80
31585;BME280;18191;51.288;12.390;2023-02-26T08:08:07;49191.84;;;-144.47;76.34
31585;BME280;18191;51.288;12.390;2023-02-26T08:12:58;49183.91;;;-144.47;75.03
31585;BME280;18191;51.288;12.390;2023-02-26T08:17:50;49164.00;;;-144.47;74.08
31585;BME280;18191;51.288;12.390;2023-02-26T08:22:40;49140.13;;;-144.47;74.79
31585;BME280;18191;51.288;12.390;2023-02-26T08:27:30;49203.78;;;-144.47;71.79
31585;BME280;18191;51.288;12.390;2023-02-26T08:32:20;49164.00;;;-144.47;71.13
31585;BME280;18191;51.288;12.390;2023-02-26T08:37:11;49152.06;;;-144.47;70.55
31585;BME280;18191;51.288;12.390;2023-02-26T08:42:02;49164.00;;;-144.47;70.95
31585;BME280;18191;51.288;12.390;2023-02-26T08:46:52;49183.91;;;-144.47;70.03
31585;BME280;18191;51.288;12.390;2023-02-26T08:51:42;49171.97;;;-144.47;71.67
31585;BME280;18191;51.288;12.390;2023-02-26T08:56:32;49124.22;;;-144.47;72.39
31585;BME280;18191;51.288;12.390;2023-02-26T09:01:22;49152.06;;;-144.47;70.66
31585;BME280;18191;51.288;12.390;2023-02-26T09:06:13;49156.03;;;-144.47;69.36
31585;BME280;18191;51.288;12.390;2023-02-26T09:11:04;49140.13;;;-144.47;68.91
31585;BME280;18191;51.288;12.390;2023-02-26T09:15:55;49136.16;;;-144.47;69.51
31585;BME280;18191;51.288;12.390;2023-02-26T09:20:45;49156.03;;;-144.47;68.92
31585;BME280;18191;51.288;12.390;2023-02-26T09:25:35;49148.09;;;-144.47;67.25
31585;BME280;18191;51.288;12.390;2023-02-26T09:30:25;49136.16;;;-144.47;67.36
31585;BME280;18191;51.288;12.390;2023-02-26T09:35:16;49183.91;;;-144.47;67.22
31585;BME280;18191;51.288;12.390;2023-02-26T09:40:06;49120.25;;;-144.47;66.43
31585;BME280;18191;51.288;12.390;2023-02-26T09:44:57;49148.09;;;-144.47;66.40
31585;BME280;18191;51.288;12.390;2023-02-26T09:54:52;49138.16;;;-144.47;66.06
31585;BME280;18191;51.288;12.390;2023-02-26T09:59:42;49104.31;;;-144.47;65.78
31585;BME280;18191;51.288;12.390;2023-02-26T10:04:39;49128.19;;;-144.47;66.78
31585;BME280;18191;51.288;12.390;2023-02-26T10:14:51;49148.09;;;-144.47;66.35
31585;BME280;18191;51.288;12.390;2023-02-26T10:19:44;49167.97;;;-144.47;65.19
31585;BME280;18191;51.288;12.390;2023-02-26T10:24:37;49136.16;;;-144.47;64.47
31585;BME280;18191;51.288;12.390;2023-02-26T10:29:32;49120.25;;;-144.47;64.56
31585;BME280;18191;51.288;12.390;2023-02-26T10:34:31;49084.44;;;-144.47;63.72
31585;BME280;18191;51.288;12.390;2023-02-26T10:39:37;49132.16;;;-144.47;62.63
31585;BME280;18191;51.288;12.390;2023-02-26T10:44:35;49138.16;;;-144.47;63.62
31585;BME280;18191;51.288;12.390;2023-02-26T10:54:40;49152.06;;;-144.47;61.22
31585;BME280;18191;51.288;12.390;2023-02-26T10:59:34;49142.13;;;-144.47;60.06
31585;BME280;18191;51.288;12.390;2023-02-26T11:04:25;49144.09;;;-144.47;61.75
31585;BME280;18191;51.288;12.390;2023-02-26T11:09:19;49120.25;;;-144.47;60.11
31585;BME280;18191;51.288;12.390;2023-02-26T11:14:11;49144.09;;;-144.47;60.22
31585;BME280;18191;51.288;12.390;2023-02-26T11:19:03;49152.06;;;-144.47;60.17
31585;BME280;18191;51.288;12.390;2023-02-26T11:23:56;49124.22;;;-144.47;60.66
31585;BME280;18191;51.288;12.390;2023-02-26T11:28:48;49120.25;;;-144.47;58.14
31585;BME280;18191;51.288;12.390;2023-02-26T11:33:39;49128.19;;;-144.47;55.97
31585;BME280;18191;51.288;12.390;2023-02-26T11:38:29;49136.16;;;-144.47;56.82
31585;BME280;18191;51.288;12.390;2023-02-26T11:43:21;49148.09;;;-144.47;54.93
31585;BME280;18191;51.288;12.390;2023-02-26T11:48:14;49148.09;;;-144.47;55.69
31585;BME280;18191;51.288;12.390;2023-02-26T11:53:05;49120.25;;;-144.47;57.80
31585;BME280;18191;51.288;12.390;2023-02-26T11:57:57;49156.03;;;-144.47;57.18
31585;BME280;18191;51.288;12.390;2023-02-26T12:02:47;49126.22;;;-144.47;54.80
31585;BME280;18191;51.288;12.390;2023-02-26T12:07:37;49092.38;;;-144.47;56.17
31585;BME280;18191;51.288;12.390;2023-02-26T12:12:31;49136.16;;;-144.47;55.64
31585;BME280;18191;51.288;12.390;2023-02-26T12:22:40;49136.16;;;-144.47;54.21
31585;BME280;18191;51.288;12.390;2023-02-26T12:27:54;49092.38;;;-144.47;50.92
31585;BME280;18191;51.288;12.390;2023-02-26T12:38:07;49160.03;;;-144.47;46.30
31585;BME280;18191;51.288;12.390;2023-02-26T12:48:13;49128.19;;;-144.47;52.56
31585;BME280;18191;51.288;12.390;2023-02-26T12:58:14;49181.91;;;-144.47;52.48
31585;BME280;18191;51.288;12.390;2023-02-26T13:12:56;49140.13;;;-144.47;50.00
31585;BME280;18191;51.288;12.390;2023-02-26T13:17:52;49080.44;;;-144.47;52.78
31585;BME280;18191;51.288;12.390;2023-02-26T13:22:47;49108.31;;;-144.47;52.17
31585;BME280;18191;51.288;12.390;2023-02-26T13:27:39;49132.16;;;-144.47;51.11
31585;BME280;18191;51.288;12.390;2023-02-26T13:32:32;49132.16;;;-144.47;51.30
31585;BME280;18191;51.288;12.390;2023-02-26T13:37:33;49140.13;;;-144.47;51.28
31585;BME280;18191;51.288;12.390;2023-02-26T13:42:32;49116.25;;;-144.47;48.27
31585;BME280;18191;51.288;12.390;2023-02-26T13:47:31;49100.34;;;-144.47;46.92
31585;BME280;18191;51.288;12.390;2023-02-26T13:52:29;49120.25;;;-144.47;43.28
31585;BME280;18191;51.288;12.390;2023-02-26T13:57:24;49106.31;;;-144.47;44.77
31585;BME280;18191;51.288;12.390;2023-02-26T14:07:14;49092.38;;;-144.47;44.85
31585;BME280;18191;51.288;12.390;2023-02-26T14:12:22;49138.16;;;-144.47;45.27
31585;BME280;18191;51.288;12.390;2023-02-26T14:32:04;49082.44;;;-144.47;45.41
31585;BME280;18191;51.288;12.390;2023-02-26T14:36:55;49104.31;;;-144.47;44.78
31585;BME280;18191;51.288;12.390;2023-02-26T14:41:47;49124.22;;;-144.47;45.75
31585;BME280;18191;51.288;12.390;2023-02-26T14:46:38;49144.09;;;-144.47;45.50
31585;BME280;18191;51.288;12.390;2023-02-26T15:06:34;49128.19;;;-144.47;46.55
31585;BME280;18191;51.288;12.390;2023-02-26T15:11:33;49124.22;;;-144.47;46.95
31585;BME280;18191;51.288;12.390;2023-02-26T15:16:31;49096.38;;;-144.47;48.43
31585;BME280;18191;51.288;12.390;2023-02-26T15:21:32;49084.44;;;-144.47;48.93
31585;BME280;18191;51.288;12.390;2023-02-26T15:26:28;49124.22;;;-144.47;52.12
31585;BME280;18191;51.288;12.390;2023-02-26T15:31:20;49124.22;;;-144.47;54.33
31585;BME280;18191;51.288;12.390;2023-02-26T15:36:17;49092.38;;;-144.47;52.52
31585;BME280;18191;51.288;12.390;2023-02-26T15:41:07;49116.25;;;-144.47;52.02
31585;BME280;18191;51.288;12.390;2023-02-26T15:45:58;49132.16;;;-144.47;52.29
31585;BME280;18191;51.288;12.390;2023-02-26T15:50:51;49108.31;;;-144.47;51.92
31585;BME280;18191;51.288;12.390;2023-02-26T15:55:45;49108.31;;;-144.47;52.45
31585;BME280;18191;51.288;12.390;2023-02-26T16:00:36;49126.22;;;-144.47;51.32
31585;BME280;18191;51.288;12.390;2023-02-26T16:05:27;49138.16;;;-144.47;51.54
31585;BME280;18191;51.288;12.390;2023-02-26T16:10:39;49108.31;;;-144.47;53.07
31585;BME280;18191;51.288;12.390;2023-02-26T16:15:29;49136.16;;;-144.47;53.75
31585;BME280;18191;51.288;12.390;2023-02-26T16:20:21;49108.31;;;-144.47;52.68
31585;BME280;18191;51.288;12.390;2023-02-26T16:30:05;49128.19;;;-144.47;53.37
31585;BME280;18191;51.288;12.390;2023-02-26T16:34:57;49134.16;;;-144.47;54.76
31585;BME280;18191;51.288;12.390;2023-02-26T16:39:55;49136.16;;;-144.47;52.12
31585;BME280;18191;51.288;12.390;2023-02-26T16:44:48;49140.13;;;-144.47;52.78
31585;BME280;18191;51.288;12.390;2023-02-26T16:49:39;49148.09;;;-144.47;54.97
31585;BME280;18191;51.288;12.390;2023-02-26T16:54:40;49108.31;;;-144.47;54.46
31585;BME280;18191;51.288;12.390;2023-02-26T16:59:33;49136.16;;;-144.47;56.25
31585;BME280;18191;51.288;12.390;2023-02-26T17:04:25;49102.34;;;-144.47;55.61
31585;BME280;18191;51.288;12.390;2023-02-26T17:14:15;49104.31;;;-144.47;56.86
31585;BME280;18191;51.288;12.390;2023-02-26T17:19:09;49148.09;;;-144.47;58.58
31585;BME280;18191;51.288;12.390;2023-02-26T17:24:00;49128.19;;;-144.47;55.02
31585;BME280;18191;51.288;12.390;2023-02-26T17:28:50;49140.13;;;-144.47;56.61
31585;BME280;18191;51.288;12.390;2023-02-26T17:33:40;49056.59;;;-144.47;54.85
31585;BME280;18191;51.288;12.390;2023-02-26T17:38:32;49108.31;;;-144.47;54.77
31585;BME280;18191;51.288;12.390;2023-02-26T17:43:22;49096.38;;;-144.47;56.21
31585;BME280;18191;51.288;12.390;2023-02-26T17:48:13;49092.38;;;-144.47;55.86
31585;BME280;18191;51.288;12.390;2023-02-26T17:53:04;49082.44;;;-144.47;56.72
31585;BME280;18191;51.288;12.390;2023-02-26T17:57:55;49116.25;;;-144.47;56.33
31585;BME280;18191;51.288;12.390;2023-02-26T18:02:45;49128.19;;;-144.47;58.58
31585;BME280;18191;51.288;12.390;2023-02-26T18:07:36;49088.41;;;-144.47;57.16
31585;BME280;18191;51.288;12.390;2023-02-26T18:12:26;49080.44;;;-144.47;58.96
31585;BME280;18191;51.288;12.390;2023-02-26T18:17:21;49108.31;;;-144.47;59.48
31585;BME280;18191;51.288;12.390;2023-02-26T18:22:12;49104.31;;;-144.47;58.42
31585;BME280;18191;51.288;12.390;2023-02-26T18:27:03;49124.22;;;-144.47;61.23
31585;BME280;18191;51.288;12.390;2023-02-26T18:31:53;49106.31;;;-144.47;60.63
31585;BME280;18191;51.288;12.390;2023-02-26T18:36:43;49128.19;;;-144.47;59.03
31585;BME280;18191;51.288;12.390;2023-02-26T18:41:33;49120.25;;;-144.47;59.33
31585;BME280;18191;51.288;12.390;2023-02-26T18:46:24;49140.13;;;-144.47;58.24
31585;BME280;18191;51.288;12.390;2023-02-26T18:51:14;49124.22;;;-144.47;58.30
31585;BME280;18191;51.288;12.390;2023-02-26T18:56:04;49124.22;;;-144.47;58.14
31585;BME280;18191;51.288;12.390;2023-02-26T19:00:54;49100.34;;;-144.47;58.20
31585;BME280;18191;51.288;12.390;2023-02-26T19:05:44;49134.16;;;-144.47;58.14
31585;BME280;18191;51.288;12.390;2023-02-26T19:10:35;49110.28;;;-144.47;59.77
31585;BME280;18191;51.288;12.390;2023-02-26T19:15:25;49100.34;;;-144.47;60.54
31585;BME280;18191;51.288;12.390;2023-02-26T19:20:16;49128.19;;;-144.47;59.53
31585;BME280;18191;51.288;12.390;2023-02-26T19:25:06;49122.22;;;-144.47;61.11
31585;BME280;18191;51.288;12.390;2023-02-26T19:29:57;49114.28;;;-144.47;62.33
31585;BME280;18191;51.288;12.390;2023-02-26T19:34:47;49142.13;;;-144.47;62.25
31585;BME280;18191;51.288;12.390;2023-02-26T19:39:37;49112.28;;;-144.47;61.13
31585;BME280;18191;51.288;12.390;2023-02-26T19:44:27;49124.22;;;-144.47;62.36
31585;BME280;18191;51.288;12.390;2023-02-26T19:49:18;49096.38;;;-144.47;61.48
31585;BME280;18191;51.288;12.390;2023-02-26T19:54:08;49144.09;;;-144.47;64.39
31585;BME280;18191;51.288;12.390;2023-02-26T19:58:58;49124.22;;;-144.47;63.07
31585;BME280;18191;51.288;12.390;2023-02-26T20:03:49;49132.16;;;-144.47;63.40
31585;BME280;18191;51.288;12.390;2023-02-26T20:08:40;49120.25;;;-144.47;66.99
31585;BME280;18191;51.288;12.390;2023-02-26T20:13:30;49154.06;;;-144.47;67.28
31585;BME280;18191;51.288;12.390;2023-02-26T20:18:24;49166.00;;;-144.47;64.36
31585;BME280;18191;51.288;12.390;2023-02-26T20:23:17;49156.03;;;-144.47;65.99
31585;BME280;18191;51.288;12.390;2023-02-26T20:28:07;49124.22;;;-144.47;67.90
31585;BME280;18191;51.288;12.390;2023-02-26T20:32:58;49152.06;;;-144.47;69.21
31585;BME280;18191;51.288;12.390;2023-02-26T20:37:48;49118.25;;;-144.47;70.71
31585;BME280;18191;51.288;12.390;2023-02-26T20:42:38;49100.34;;;-144.47;71.80
31585;BME280;18191;51.288;12.390;2023-02-26T20:47:29;49164.00;;;-144.47;71.40
31585;BME280;18191;51.288;12.390;2023-02-26T20:52:19;49140.13;;;-144.47;72.68
31585;BME280;18191;51.288;12.390;2023-02-26T20:57:10;49114.28;;;-144.47;73.54
31585;BME280;18191;51.288;12.390;2023-02-26T21:02:00;49120.25;;;-144.47;74.07
31585;BME280;18191;51.288;12.390;2023-02-26T21:06:50;49148.09;;;-144.47;74.75
31585;BME280;18191;51.288;12.390;2023-02-26T21:11:40;49156.03;;;-144.47;74.25
31585;BME280;18191;51.288;12.390;2023-02-26T21:16:31;49130.19;;;-144.47;75.34
31585;BME280;18191;51.288;12.390;2023-02-26T21:21:21;49102.34;;;-144.47;75.93
31585;BME280;18191;51.288;12.390;2023-02-26T21:26:11;49122.22;;;-144.47;75.94
31585;BME280;18191;51.288;12.390;2023-02-26T21:31:01;49120.25;;;-144.47;76.70
31585;BME280;18191;51.288;12.390;2023-02-26T21:35:51;49152.06;;;-144.47;77.07
31585;BME280;18191;51.288;12.390;2023-02-26T21:40:42;49148.09;;;-144.47;77.77
31585;BME280;18191;51.288;12.390;2023-02-26T21:45:32;49162.00;;;-144.47;77.53
31585;BME280;18191;51.288;12.390;2023-02-26T21:50:25;49108.31;;;-144.47;77.73
31585;BME280;18191;51.288;12.390;2023-02-26T21:55:15;49156.03;;;-144.47;78.00
31585;BME280;18191;51.288;12.390;2023-02-26T22:00:05;49148.09;;;-144.47;78.04
31585;BME280;18191;51.288;12.390;2023-02-26T22:04:59;49152.06;;;-144.47;78.96
31585;BME280;18191;51.288;12.390;2023-02-26T22:09:49;49142.13;;;-144.47;78.11
31585;BME280;18191;51.288;12.390;2023-02-26T22:14:40;49148.09;;;-144.47;77.43
31585;BME280;18191;51.288;12.390;2023-02-26T22:19:30;49144.09;;;-144.47;77.42
31585;BME280;18191;51.288;12.390;2023-02-26T22:24:21;49140.13;;;-144.47;79.25
31585;BME280;18191;51.288;12.390;2023-02-26T22:29:11;49152.06;;;-144.47;78.85
31585;BME280;18191;51.288;12.390;2023-02-26T22:34:01;49171.97;;;-144.47;79.42
31585;BME280;18191;51.288;12.390;2023-02-26T22:38:51;49120.25;;;-144.47;79.94
31585;BME280;18191;51.288;12.390;2023-02-26T22:43:41;49140.13;;;-144.47;80.54
31585;BME280;18191;51.288;12.390;2023-02-26T22:48:32;49112.28;;;-144.47;81.05
31585;BME280;18191;51.288;12.390;2023-02-26T22:53:22;49116.25;;;-144.47;80.89
31585;BME280;18191;51.288;12.390;2023-02-26T22:58:12;49140.13;;;-144.47;80.74
31585;BME280;18191;51.288;12.390;2023-02-26T23:03:02;49150.06;;;-144.47;80.60
31585;BME280;18191;51.288;12.390;2023-02-26T23:07:52;49175.94;;;-144.47;80.83
31585;BME280;18191;51.288;12.390;2023-02-26T23:12:43;49140.13;;;-144.47;80.99
31585;BME280;18191;51.288;12.390;2023-02-26T23:17:33;49100.34;;;-144.47;81.32
31585;BME280;18191;51.288;12.390;2023-02-26T23:22:24;49120.25;;;-144.47;81.24
31585;BME280;18191;51.288;12.390;2023-02-26T23:27:14;49118.25;;;-144.47;80.77
31585;BME280;18191;51.288;12.390;2023-02-26T23:32:04;49166.00;;;-144.47;81.34
31585;BME280;18191;51.288;12.390;2023-02-26T23:36:55;49136.16;;;-144.47;81.79
31585;BME280;18191;51.288;12.390;2023-02-26T23:41:45;49136.16;;;-144.47;82.09
31585;BME280;18191;51.288;12.390;2023-02-26T23:46:35;49136.16;;;-144.47;81.99
31585;BME280;18191;51.288;12.390;2023-02-26T23:51:26;49175.94;;;-144.47;82.21
31585;BME280;18191;51.288;12.390;2023-02-26T23:56:16;49136.16;;;-144.47;82.47
